Time;durP1;ratioP1;P1;durP2;ratioP2;P2;SDS_P1;SDS_P2;PMS_P1;PMS_P2;Temp;Humidity;BMP_temperature;BMP_pressure;BME280_temperature;BME280_humidity;BME280_pressure;Samples;Min_cycle;Max_cycle;Signal;HPM_P1;HPM_P2
2022/01/17 00:00:27;;;;;;;358.10;147.73;;;;;;;-1.01;90.97;95256.38;5088021;28;20208;-78
2022/01/17 00:02:56;;;;;;;358.03;145.60;;;;;;;-1.00;91.20;95252.91;5091615;28;20243;-78
2022/01/17 00:05:23;;;;;;;368.40;149.00;;;;;;;-0.95;90.64;95257.63;5090143;28;20232;-80
2022/01/17 00:07:51;;;;;;;364.03;148.97;;;;;;;-0.95;90.40;95248.19;5092165;28;20197;-80
2022/01/17 00:10:19;;;;;;;375.97;153.03;;;;;;;-0.99;90.99;95248.59;5090901;28;20208;-79
2022/01/17 00:12:50;;;;;;;373.13;152.07;;;;;;;-0.98;90.38;95250.22;5090800;28;20200;-79
2022/01/17 00:15:24;;;;;;;375.40;154.77;;;;;;;-1.07;90.98;95262.03;5089828;28;20205;-79
2022/01/17 00:18:07;;;;;;;374.77;153.00;;;;;;;-1.13;91.33;95263.34;5090616;28;20260;-79
2022/01/17 00:20:35;;;;;;;361.37;145.50;;;;;;;-1.13;91.04;95255.69;5083824;28;20199;-77
2022/01/17 00:23:03;;;;;;;364.23;150.37;;;;;;;-1.21;91.56;95250.44;5086269;28;20316;-79
2022/01/17 00:25:32;;;;;;;403.60;172.23;;;;;;;-1.26;92.46;95255.13;5090571;28;20208;-80
2022/01/17 00:28:00;;;;;;;405.70;169.63;;;;;;;-1.30;92.58;95270.84;5089372;28;20663;-79
2022/01/17 00:30:30;;;;;;;411.03;168.93;;;;;;;-1.26;92.80;95259.44;5088838;28;20385;-79
2022/01/17 00:32:58;;;;;;;397.17;168.37;;;;;;;-1.22;92.24;95263.34;5090837;28;20201;-79
2022/01/17 00:35:28;;;;;;;398.53;167.57;;;;;;;-1.31;92.90;95269.22;5089434;28;20212;-79
2022/01/17 00:37:56;;;;;;;397.33;163.67;;;;;;;-1.29;93.19;95268.16;5090094;28;20185;-80
2022/01/17 00:40:25;;;;;;;409.60;169.80;;;;;;;-1.29;92.83;95269.88;5089055;28;20233;-79
2022/01/17 00:42:53;;;;;;;415.37;179.83;;;;;;;-1.31;93.61;95264.13;5090314;28;20211;-80
2022/01/17 00:45:26;;;;;;;443.07;190.10;;;;;;;-1.29;93.18;95270.69;5089752;28;20236;-80
2022/01/17 00:47:58;;;;;;;416.30;180.20;;;;;;;-1.34;93.21;95256.72;5091095;28;20232;-80
2022/01/17 00:50:27;;;;;;;418.83;177.77;;;;;;;-1.30;93.23;95268.28;5089522;28;20274;-80
2022/01/17 00:52:56;;;;;;;398.87;167.73;;;;;;;-1.25;92.86;95258.50;5086341;28;20224;-81
2022/01/17 00:55:24;;;;;;;381.60;156.70;;;;;;;-1.30;93.65;95255.53;5089183;28;20647;-80
2022/01/17 00:57:52;;;;;;;423.80;179.47;;;;;;;-1.22;92.44;95250.59;5085070;28;20208;-80
2022/01/17 01:00:21;;;;;;;404.60;171.40;;;;;;;-1.27;92.84;95248.41;5089067;28;20266;-80
2022/01/17 01:02:49;;;;;;;410.77;173.13;;;;;;;-1.31;92.43;95241.19;5084420;28;20252;-80
2022/01/17 01:05:19;;;;;;;394.73;168.53;;;;;;;-1.30;92.82;95250.44;5088893;28;20197;-80
2022/01/17 01:07:47;;;;;;;391.90;161.03;;;;;;;-1.32;92.68;95231.91;5089756;28;20243;-81
2022/01/17 01:10:16;;;;;;;391.10;158.87;;;;;;;-1.40;93.39;95236.88;5088709;28;20690;-80
2022/01/17 01:12:46;;;;;;;392.73;165.87;;;;;;;-1.43;93.64;95232.03;5088404;28;20207;-79
2022/01/17 01:15:23;;;;;;;402.13;166.50;;;;;;;-1.40;93.54;95230.03;5088022;28;20232;-78
2022/01/17 01:17:54;;;;;;;384.67;160.97;;;;;;;-1.51;93.77;95219.13;5089075;28;20192;-78
2022/01/17 01:20:49;;;;;;;374.07;156.80;;;;;;;-1.42;92.91;95237.00;5087629;28;20197;-78
2022/01/17 01:28:48;;;;;;;381.40;158.10;;;;;;;-1.60;93.26;95214.81;5086913;28;20621;-81
2022/01/17 01:31:28;;;;;;;412.70;175.83;;;;;;;-1.55;94.15;95227.97;5087135;28;20237;-82
2022/01/17 01:34:03;;;;;;;413.37;164.83;;;;;;;-1.55;93.81;95231.31;5089594;28;20219;-81
2022/01/17 01:36:33;;;;;;;399.73;162.63;;;;;;;-1.56;94.27;95234.84;5086625;28;20663;-81
2022/01/17 01:39:01;;;;;;;384.63;161.70;;;;;;;-1.58;93.97;95225.69;5085969;28;20841;-81
2022/01/17 01:41:28;;;;;;;405.47;163.47;;;;;;;-1.60;94.95;95230.91;5089212;28;20223;-80
2022/01/17 01:43:56;;;;;;;400.40;167.07;;;;;;;-1.63;94.54;95230.38;5089109;28;20650;-81
2022/01/17 01:46:24;;;;;;;383.83;162.30;;;;;;;-1.65;95.55;95235.59;5088265;28;20208;-82
2022/01/17 01:48:53;;;;;;;383.77;158.83;;;;;;;-1.58;95.57;95230.78;5089675;28;20212;-81
2022/01/17 01:51:20;;;;;;;389.23;160.07;;;;;;;-1.54;95.22;95221.94;5088370;28;20209;-79
2022/01/17 01:53:51;;;;;;;389.17;160.53;;;;;;;-1.55;94.65;95226.22;5088775;28;20200;-81
2022/01/17 01:56:18;;;;;;;356.23;146.63;;;;;;;-1.55;94.95;95220.31;5088761;28;20582;-80
2022/01/17 01:58:47;;;;;;;323.53;134.63;;;;;;;-1.64;94.58;95224.47;5088577;28;20205;-81
2022/01/17 02:01:15;;;;;;;327.10;136.40;;;;;;;-1.73;95.29;95218.41;5088548;28;20221;-80
2022/01/17 02:03:45;;;;;;;296.77;123.60;;;;;;;-1.70;95.92;95214.78;5089501;28;20660;-81
2022/01/17 02:06:13;;;;;;;323.43;129.60;;;;;;;-1.73;95.74;95212.50;5088093;28;20204;-80
2022/01/17 02:08:42;;;;;;;317.07;127.43;;;;;;;-1.66;94.37;95198.31;5088910;28;20219;-80
2022/01/17 02:11:11;;;;;;;343.53;138.03;;;;;;;-1.65;94.62;95194.84;5088170;28;20283;-81
2022/01/17 02:13:41;;;;;;;341.03;137.87;;;;;;;-1.68;93.95;95186.66;5084250;28;20232;-80
2022/01/17 02:16:13;;;;;;;330.20;134.67;;;;;;;-1.69;93.96;95197.78;5089151;28;20281;-81
2022/01/17 02:18:43;;;;;;;328.33;132.10;;;;;;;-1.69;95.23;95193.47;5088178;28;20576;-81
2022/01/17 02:21:19;;;;;;;340.80;135.57;;;;;;;-1.72;95.29;95193.75;5088174;28;20201;-81
2022/01/17 02:23:49;;;;;;;321.50;131.77;;;;;;;-1.71;95.05;95195.38;5083489;28;20284;-80
2022/01/17 02:26:17;;;;;;;311.93;125.57;;;;;;;-1.79;94.99;95185.03;5088222;28;20201;-80
2022/01/17 02:28:50;;;;;;;299.20;118.90;;;;;;;-1.71;94.91;95197.91;5089412;28;20291;-87
2022/01/17 02:31:20;;;;;;;277.77;114.90;;;;;;;-1.68;94.68;95186.66;5093166;28;20239;-79
2022/01/17 02:33:50;;;;;;;242.50;105.33;;;;;;;-1.72;95.43;95196.28;5092133;28;20192;-79
2022/01/17 02:36:20;;;;;;;235.93;99.07;;;;;;;-1.67;95.15;95193.38;5091682;28;20205;-79
2022/01/17 02:38:49;;;;;;;257.23;105.10;;;;;;;-1.72;95.11;95193.75;5092834;28;20275;-79
2022/01/17 02:41:17;;;;;;;239.53;101.27;;;;;;;-1.75;95.12;95188.91;5091863;28;20663;-79
2022/01/17 02:43:47;;;;;;;259.77;106.13;;;;;;;-1.68;94.92;95192.56;5092493;28;20544;-81
2022/01/17 02:46:28;;;;;;;253.93;107.07;;;;;;;-1.75;95.24;95194.81;5091058;28;20545;-81
2022/01/17 02:48:57;;;;;;;251.33;102.13;;;;;;;-1.71;94.98;95185.19;5087257;28;20691;-79
2022/01/17 02:51:28;;;;;;;246.23;102.60;;;;;;;-1.64;95.04;95196.44;5091185;28;20207;-79
2022/01/17 02:53:56;;;;;;;232.43;101.47;;;;;;;-1.70;94.64;95199.50;5090123;28;20671;-80
2022/01/17 02:56:25;;;;;;;235.07;102.50;;;;;;;-1.70;94.71;95193.63;5090479;28;20698;-79
2022/01/17 02:58:53;;;;;;;256.53;107.60;;;;;;;-1.74;94.64;95198.16;5091696;28;20204;-80
2022/01/17 03:01:23;;;;;;;273.43;115.73;;;;;;;-1.72;94.57;95197.09;5091335;28;20663;-81
2022/01/17 03:03:52;;;;;;;279.40;116.83;;;;;;;-1.74;94.31;95181.16;5092647;28;20219;-80
2022/01/17 03:06:21;;;;;;;265.63;113.97;;;;;;;-1.70;94.15;95186.00;5090761;28;20247;-80
2022/01/17 03:08:52;;;;;;;267.33;111.17;;;;;;;-1.74;94.09;95181.16;5091942;28;20258;-81
2022/01/17 03:11:23;;;;;;;263.10;105.90;;;;;;;-1.72;94.02;95181.00;5091362;28;20204;-80
2022/01/17 03:13:52;;;;;;;260.40;108.23;;;;;;;-1.72;93.79;95183.56;5092822;28;20203;-80
2022/01/17 03:16:22;;;;;;;241.00;100.20;;;;;;;-1.68;93.84;95184.09;5091654;28;20227;-80
2022/01/17 03:18:52;;;;;;;233.70;99.83;;;;;;;-1.70;93.41;95181.69;5091786;28;20211;-80
2022/01/17 03:21:21;;;;;;;242.13;100.57;;;;;;;-1.75;93.66;95184.63;5091286;28;20224;-81
2022/01/17 03:23:51;;;;;;;233.70;100.40;;;;;;;-1.77;93.97;95186.50;5092177;28;20578;-81
2022/01/17 03:26:21;;;;;;;233.33;100.97;;;;;;;-1.76;93.59;95180.47;5092420;28;20231;-81
2022/01/17 03:28:48;;;;;;;234.10;100.53;;;;;;;-1.86;94.33;95176.28;5090959;28;20260;-81
2022/01/17 03:31:17;;;;;;;239.50;96.97;;;;;;;-1.93;94.94;95186.16;5091253;28;20236;-81
2022/01/17 03:33:46;;;;;;;231.97;97.57;;;;;;;-1.92;95.86;95185.25;5091951;28;20208;-81
2022/01/17 03:36:13;;;;;;;235.47;99.40;;;;;;;-1.92;95.94;95179.34;5091610;28;20208;-81
2022/01/17 03:38:42;;;;;;;234.40;99.57;;;;;;;-1.90;95.69;95192.75;5091918;28;20239;-79
2022/01/17 03:41:13;;;;;;;236.33;99.37;;;;;;;-1.91;95.54;95186.88;5089834;28;20236;-81
2022/01/17 03:43:41;;;;;;;236.70;100.63;;;;;;;-1.80;94.85;95204.59;5089781;28;20227;-80
2022/01/17 03:46:10;;;;;;;248.57;104.13;;;;;;;-1.85;95.03;95203.38;5091251;28;20277;-80
2022/01/17 03:48:37;;;;;;;241.97;106.13;;;;;;;-1.88;95.35;95196.78;5090971;28;20215;-80
2022/01/17 03:51:06;;;;;;;253.93;107.23;;;;;;;-1.81;94.85;95199.63;5091225;28;20212;-79
2022/01/17 03:53:35;;;;;;;293.57;123.57;;;;;;;-1.85;94.39;95203.38;5090391;28;20287;-82
2022/01/17 03:56:04;;;;;;;303.33;126.00;;;;;;;-1.84;94.80;95205.78;5091121;28;20209;-80
2022/01/17 03:58:33;;;;;;;299.50;129.47;;;;;;;-1.85;94.94;95209.25;5090372;28;20332;-81
2022/01/17 04:01:02;;;;;;;325.93;129.10;;;;;;;-1.80;94.56;95216.50;5091253;28;20286;-79
2022/01/17 04:03:30;;;;;;;305.90;129.03;;;;;;;-1.80;94.61;95209.69;5090249;28;20324;-84
2022/01/17 04:05:58;;;;;;;296.17;129.80;;;;;;;-1.83;94.35;95211.69;5091771;28;20257;-84
2022/01/17 04:08:26;;;;;;;300.67;128.83;;;;;;;-1.95;95.51;95212.69;5091697;28;20205;-85
2022/01/17 04:10:53;;;;;;;296.77;127.27;;;;;;;-1.87;94.57;95212.84;5092004;28;20200;-83
2022/01/17 04:13:22;;;;;;;302.90;129.47;;;;;;;-1.85;93.96;95211.78;5088688;28;20286;-72
2022/01/17 04:15:52;;;;;;;317.40;133.63;;;;;;;-1.87;94.48;95211.13;5083323;28;20208;-72
2022/01/17 04:18:23;;;;;;;309.77;126.40;;;;;;;-1.85;95.43;95206.69;5086292;28;20221;-72
2022/01/17 04:20:51;;;;;;;320.93;131.13;;;;;;;-1.77;94.29;95204.34;5082409;28;20204;-72
2022/01/17 04:23:19;;;;;;;300.83;131.17;;;;;;;-1.76;93.47;95208.47;5088958;28;20600;-72
2022/01/17 04:25:49;;;;;;;250.83;101.90;;;;;;;-1.89;93.47;95209.66;5088231;28;20656;-72
2022/01/17 04:28:17;;;;;;;210.27;93.13;;;;;;;-2.03;93.91;95210.00;5088335;28;20636;-72
2022/01/17 04:30:45;;;;;;;205.67;86.97;;;;;;;-2.16;95.14;95204.28;5088171;28;20243;-72
2022/01/17 04:33:15;;;;;;;207.80;83.27;;;;;;;-2.33;96.08;95196.31;5087779;28;20205;-72
2022/01/17 04:35:44;;;;;;;205.80;84.77;;;;;;;-2.39;97.29;95203.66;5089038;28;20274;-72
2022/01/17 04:38:15;;;;;;;210.57;88.07;;;;;;;-2.33;97.10;95198.88;5088297;28;20246;-72
2022/01/17 04:40:47;;;;;;;211.00;89.13;;;;;;;-2.27;97.07;95189.91;5084774;28;20205;-71
2022/01/17 04:43:54;;;;;;;206.23;88.23;;;;;;;-2.24;97.37;95194.75;5093308;28;20209;-72
2022/01/17 04:46:23;;;;;;;217.30;92.83;;;;;;;-2.21;96.58;95191.16;5088775;28;20269;-71
2022/01/17 04:48:53;;;;;;;226.93;95.93;;;;;;;-2.20;96.78;95190.22;5084896;28;20227;-72
2022/01/17 04:51:21;;;;;;;219.47;88.13;;;;;;;-2.20;96.20;95188.50;5089121;28;20664;-71
2022/01/17 04:54:09;;;;;;;199.23;83.63;;;;;;;-2.23;97.05;95187.94;5089265;28;20599;-71
2022/01/17 04:56:37;;;;;;;220.17;93.03;;;;;;;-2.16;96.85;95187.28;5090792;28;20232;-71
2022/01/17 04:59:06;;;;;;;219.80;94.23;;;;;;;-2.16;96.75;95191.56;5088967;28;20211;-71
2022/01/17 05:01:33;;;;;;;207.33;90.87;;;;;;;-2.14;96.52;95193.06;5089253;28;20583;-71
2022/01/17 05:04:03;;;;;;;224.03;94.80;;;;;;;-2.10;96.79;95198.69;5089786;28;20220;-71
2022/01/17 05:06:30;;;;;;;226.27;95.63;;;;;;;-2.18;97.84;95194.25;5090014;28;20197;-71
2022/01/17 05:08:58;;;;;;;225.43;98.50;;;;;;;-2.17;97.76;95198.41;5092028;28;20249;-71
2022/01/17 05:11:29;;;;;;;231.27;100.93;;;;;;;-2.11;97.71;95182.66;5089401;28;20244;-71
2022/01/17 05:13:57;;;;;;;233.87;100.83;;;;;;;-2.04;97.72;95190.56;5089968;28;20637;-71
2022/01/17 05:16:32;;;;;;;238.23;102.13;;;;;;;-2.03;97.63;95199.81;5088298;28;20240;-71
2022/01/17 05:21:48;;;;;;;235.00;101.40;;;;;;;-1.96;96.93;95193.25;5087757;28;20215;-71
2022/01/17 05:24:17;;;;;;;249.93;106.90;;;;;;;-2.00;96.68;95202.91;5089111;28;20285;-70
2022/01/17 05:26:45;;;;;;;242.23;101.17;;;;;;;-2.01;96.06;95195.38;5088888;28;20209;-71
2022/01/17 05:29:13;;;;;;;241.03;97.10;;;;;;;-1.96;94.80;95200.88;5088637;28;20207;-72
2022/01/17 05:31:41;;;;;;;214.40;92.90;;;;;;;-2.01;95.17;95196.19;5088275;28;20207;-71
2022/01/17 05:34:10;;;;;;;216.70;92.70;;;;;;;-1.93;94.72;95198.09;5088204;28;20261;-70
2022/01/17 05:36:38;;;;;;;204.60;88.53;;;;;;;-1.90;94.03;95180.00;5088034;28;20727;-73
2022/01/17 05:39:08;;;;;;;205.37;86.43;;;;;;;-1.89;93.44;95191.81;5094885;28;20213;-73
2022/01/17 05:41:37;;;;;;;241.97;103.07;;;;;;;-1.90;92.59;95192.75;5088398;28;20205;-74
2022/01/17 05:44:06;;;;;;;254.30;114.60;;;;;;;-2.02;92.27;95202.22;5087630;28;20671;-74
2022/01/17 05:46:33;;;;;;;248.03;106.83;;;;;;;-2.09;92.34;95206.22;5087446;28;20216;-73
2022/01/17 05:49:01;;;;;;;246.47;105.00;;;;;;;-2.13;93.23;95204.03;5088175;28;20286;-74
2022/01/17 05:51:29;;;;;;;285.07;115.70;;;;;;;-2.15;92.96;95200.81;5088538;28;20222;-73
2022/01/17 05:53:57;;;;;;;281.60;120.97;;;;;;;-2.23;93.57;95213.38;5088079;28;20201;-72
2022/01/17 05:56:27;;;;;;;284.00;120.30;;;;;;;-2.21;94.85;95219.16;5091427;28;20284;-73
2022/01/17 05:59:00;;;;;;;275.07;118.23;;;;;;;-2.23;94.88;95209.09;5090923;28;20259;-73
2022/01/17 06:01:28;;;;;;;275.03;117.10;;;;;;;-2.21;94.96;95206.41;5089408;28;20659;-79
2022/01/17 06:03:55;;;;;;;256.33;109.80;;;;;;;-2.11;94.93;95217.47;5088953;28;20368;-73
2022/01/17 06:06:24;;;;;;;275.00;115.87;;;;;;;-2.04;94.10;95219.38;5090860;28;20340;-73
2022/01/17 06:08:51;;;;;;;275.03;111.17;;;;;;;-2.06;93.46;95213.59;5087561;28;20209;-73
2022/01/17 06:11:20;;;;;;;258.47;113.87;;;;;;;-2.04;93.84;95218.56;5088247;28;20212;-73
2022/01/17 06:13:51;;;;;;;260.90;115.17;;;;;;;-2.00;94.22;95225.00;5088132;28;20216;-73
2022/01/17 06:16:18;;;;;;;251.40;112.30;;;;;;;-2.00;93.82;95220.72;5084068;28;20216;-73
2022/01/17 06:18:46;;;;;;;267.10;113.57;;;;;;;-2.02;94.15;95214.16;5086924;28;20215;-73
2022/01/17 06:21:13;;;;;;;265.50;115.13;;;;;;;-1.95;94.22;95216.06;5086690;28;20233;-72
2022/01/17 06:23:40;;;;;;;266.67;114.93;;;;;;;-1.89;93.86;95220.63;5087713;28;20225;-73
2022/01/17 06:26:08;;;;;;;252.20;110.77;;;;;;;-1.91;94.07;95224.25;5087835;28;20258;-73
2022/01/17 06:28:35;;;;;;;253.30;113.53;;;;;;;-1.89;94.49;95219.81;5086844;28;20240;-72
2022/01/17 06:31:03;;;;;;;253.53;112.83;;;;;;;-1.85;94.45;95228.84;5087398;28;20652;-71
2022/01/17 06:33:31;;;;;;;265.90;114.77;;;;;;;-1.79;93.78;95228.31;5087393;28;20208;-73
2022/01/17 06:35:58;;;;;;;300.40;123.70;;;;;;;-1.77;93.91;95211.16;5088363;28;20201;-72
2022/01/17 06:38:25;;;;;;;306.20;130.37;;;;;;;-1.77;93.52;95216.25;5086729;28;20224;-71
2022/01/17 06:40:53;;;;;;;350.03;150.50;;;;;;;-1.65;92.68;95220.31;5087105;28;20238;-72
2022/01/17 06:43:22;;;;;;;356.23;151.33;;;;;;;-1.64;92.53;95234.66;5087400;28;20231;-71
2022/01/17 06:45:50;;;;;;;348.10;148.07;;;;;;;-1.67;92.24;95218.84;5089955;28;20204;-72
2022/01/17 06:48:19;;;;;;;339.63;146.57;;;;;;;-1.62;92.53;95239.63;5087666;28;20203;-75
2022/01/17 06:50:47;;;;;;;355.40;151.87;;;;;;;-1.56;92.48;95234.03;5086898;28;20216;-76
2022/01/17 06:53:15;;;;;;;332.33;143.83;;;;;;;-1.54;92.07;95230.41;5087172;28;20196;-77
2022/01/17 06:55:43;;;;;;;316.57;135.17;;;;;;;-1.56;91.54;95216.19;5087595;28;20231;-72
2022/01/17 06:58:11;;;;;;;279.83;117.97;;;;;;;-1.51;91.02;95225.03;5087139;28;20193;-73
2022/01/17 07:00:39;;;;;;;228.60;99.67;;;;;;;-1.47;89.85;95220.50;5086107;28;20199;-73
2022/01/17 07:03:07;;;;;;;127.43;54.07;;;;;;;-1.34;88.05;95229.50;5085563;28;20224;-72
2022/01/17 07:05:37;;;;;;;76.00;34.00;;;;;;;-1.28;85.27;95226.44;5086281;28;20819;-74
2022/01/17 07:08:05;;;;;;;41.37;18.70;;;;;;;-1.19;82.81;95225.66;5086195;28;20193;-72
2022/01/17 07:10:33;;;;;;;32.30;15.37;;;;;;;-1.06;82.00;95222.81;5086081;28;20204;-72
2022/01/17 07:13:02;;;;;;;31.33;13.90;;;;;;;-0.88;80.98;95225.53;5086228;28;20197;-72
2022/01/17 07:15:30;;;;;;;30.23;14.30;;;;;;;-0.75;80.29;95220.97;5088210;28;20269;-74
2022/01/17 07:17:58;;;;;;;30.83;11.97;;;;;;;-0.51;78.09;95236.63;5089814;28;20211;-74
2022/01/17 07:20:27;;;;;;;23.63;10.87;;;;;;;-0.35;77.79;95242.00;5089965;28;20578;-74
2022/01/17 07:22:56;;;;;;;25.07;10.43;;;;;;;-0.21;76.85;95249.25;5089995;28;20225;-73
2022/01/17 07:25:24;;;;;;;18.17;8.80;;;;;;;-0.09;76.34;95265.97;5091308;28;20200;-74
2022/01/17 07:27:52;;;;;;;21.17;8.90;;;;;;;0.06;76.05;95260.47;5090089;28;20285;-73
2022/01/17 07:30:21;;;;;;;17.07;8.03;;;;;;;0.23;74.88;95262.28;5090660;28;20228;-75
2022/01/17 07:32:49;;;;;;;18.03;8.27;;;;;;;0.36;74.35;95255.09;5090651;28;20247;-74
2022/01/17 07:35:17;;;;;;;16.40;7.57;;;;;;;0.48;72.46;95254.78;5090641;28;20301;-73
2022/01/17 07:37:44;;;;;;;22.63;9.13;;;;;;;0.62;71.13;95258.63;5091168;28;20196;-74
2022/01/17 07:40:14;;;;;;;17.97;7.90;;;;;;;0.70;70.73;95234.88;5091964;28;20848;-82
2022/01/17 07:42:42;;;;;;;17.97;7.77;;;;;;;0.73;70.42;95232.84;5092713;28;20240;-80
2022/01/17 07:45:13;;;;;;;23.97;9.73;;;;;;;0.82;69.40;95231.97;5091941;28;20201;-78
2022/01/17 07:47:44;;;;;;;25.90;12.13;;;;;;;0.85;69.49;95225.78;5091561;28;20301;-81
2022/01/17 07:50:15;;;;;;;28.73;12.80;;;;;;;0.95;68.62;95234.19;5090965;28;20791;-79
2022/01/17 07:52:43;;;;;;;28.37;11.77;;;;;;;1.11;68.02;95245.38;5090593;28;20673;-78
2022/01/17 07:55:14;;;;;;;26.30;12.10;;;;;;;1.46;65.40;95257.38;5085338;28;20208;-79
2022/01/17 07:57:44;;;;;;;22.07;9.70;;;;;;;2.01;61.21;95283.56;5091139;28;20197;-78
2022/01/17 08:00:14;;;;;;;19.53;9.13;;;;;;;2.37;59.57;95321.94;5090691;28;20203;-78
2022/01/17 08:02:41;;;;;;;16.70;8.50;;;;;;;2.58;58.72;95348.00;5089779;28;20241;-78
2022/01/17 08:05:14;;;;;;;25.33;9.87;;;;;;;2.77;58.32;95335.00;5089911;28;20227;-78
2022/01/17 08:07:41;;;;;;;19.53;9.80;;;;;;;2.88;57.95;95316.75;5090823;28;20211;-77
2022/01/17 08:10:12;;;;;;;15.67;8.47;;;;;;;2.98;58.31;95314.03;5089817;28;20545;-77
2022/01/17 08:12:41;;;;;;;18.73;8.63;;;;;;;3.03;58.86;95273.31;5089622;28;20227;-78
2022/01/17 08:15:09;;;;;;;19.13;9.83;;;;;;;2.98;60.05;95255.00;5088545;28;20274;-78
2022/01/17 08:17:36;;;;;;;23.30;9.80;;;;;;;3.11;59.57;95243.34;5088202;28;20257;-81
2022/01/17 08:20:05;;;;;;;14.80;7.90;;;;;;;3.13;59.58;95246.53;5088053;28;20509;-77
2022/01/17 08:22:32;;;;;;;18.07;8.10;;;;;;;3.23;60.00;95233.56;5083386;28;20664;-78
2022/01/17 08:24:59;;;;;;;23.90;8.73;;;;;;;3.24;60.75;95253.94;5088588;28;20232;-77
2022/01/17 08:27:28;;;;;;;14.13;8.07;;;;;;;3.21;59.36;95297.91;5087337;28;20678;-79
2022/01/17 08:30:00;;;;;;;18.73;7.47;;;;;;;3.22;58.60;95312.38;5088530;28;20699;-79
2022/01/17 08:32:29;;;;;;;16.37;6.70;;;;;;;3.23;58.66;95336.28;5088814;28;20195;-78
2022/01/17 08:34:57;;;;;;;13.53;7.07;;;;;;;3.27;57.63;95361.50;5089202;28;20829;-77
2022/01/17 08:37:25;;;;;;;13.97;7.37;;;;;;;3.33;57.94;95378.03;5089115;28;20634;-76
2022/01/17 08:39:52;;;;;;;19.90;8.87;;;;;;;3.43;56.83;95358.94;5088894;28;20640;-76
2022/01/17 08:42:20;;;;;;;16.10;8.30;;;;;;;3.54;55.92;95295.41;5088406;28;20306;-78
2022/01/17 08:44:49;;;;;;;14.80;6.53;;;;;;;3.64;52.13;95319.97;5088343;28;20224;-76
2022/01/17 08:47:19;;;;;;;14.93;8.20;;;;;;;3.82;50.88;95309.56;5088286;28;20207;-76
2022/01/17 08:49:48;;;;;;;16.77;6.90;;;;;;;3.84;50.71;95281.91;5086473;28;20205;-77
2022/01/17 08:52:16;;;;;;;14.30;7.13;;;;;;;4.03;49.92;95291.88;5089016;28;20200;-76
2022/01/17 08:54:43;;;;;;;18.93;7.50;;;;;;;4.10;50.12;95230.31;5088518;28;20201;-76
2022/01/17 08:57:11;;;;;;;14.63;7.97;;;;;;;4.23;50.19;95207.47;5086430;28;20205;-84
2022/01/17 08:59:40;;;;;;;20.03;9.00;;;;;;;4.23;50.26;95228.84;5085436;28;20444;-76
2022/01/17 09:02:08;;;;;;;22.93;10.50;;;;;;;4.28;51.09;95243.78;5088702;28;20203;-76
2022/01/17 09:04:40;;;;;;;19.67;9.90;;;;;;;4.32;51.40;95214.19;5086066;28;20224;-76
2022/01/17 09:07:08;;;;;;;16.87;8.60;;;;;;;4.36;50.89;95184.56;5088258;28;20664;-76
2022/01/17 09:09:36;;;;;;;18.37;9.20;;;;;;;4.35;51.17;95183.00;5086062;28;20205;-77
2022/01/17 09:12:04;;;;;;;10.13;5.53;;;;;;;4.37;50.29;95181.03;5087903;28;20207;-76
2022/01/17 09:14:31;;;;;;;13.33;7.50;;;;;;;4.39;50.92;95179.09;5088811;28;20189;-76
2022/01/17 09:16:59;;;;;;;12.70;7.53;;;;;;;4.35;50.60;95193.28;5087424;28;20204;-77
2022/01/17 09:19:27;;;;;;;15.73;7.57;;;;;;;4.47;51.48;95184.22;5088289;28;20204;-77
2022/01/17 09:21:57;;;;;;;14.00;7.40;;;;;;;4.36;51.45;95166.56;5084892;28;20282;-77
2022/01/17 09:24:26;;;;;;;14.97;8.17;;;;;;;4.36;51.90;95148.56;5088510;28;20220;-77
2022/01/17 09:26:54;;;;;;;14.63;7.43;;;;;;;4.47;51.93;95171.38;5086641;28;20201;-76
2022/01/17 09:29:21;;;;;;;17.37;7.97;;;;;;;4.41;51.90;95175.41;5088200;28;20203;-77
2022/01/17 09:31:48;;;;;;;14.13;7.67;;;;;;;4.42;51.96;95195.00;5088314;28;20209;-76
2022/01/17 09:34:15;;;;;;;21.97;8.53;;;;;;;4.44;52.39;95190.50;5085004;28;20192;-76
2022/01/17 09:36:43;;;;;;;16.43;8.13;;;;;;;4.36;55.91;95190.53;5088403;28;20201;-76
2022/01/17 09:39:12;;;;;;;18.40;10.50;;;;;;;4.39;57.68;95185.03;5087481;28;20272;-76
2022/01/17 09:41:40;;;;;;;15.67;9.67;;;;;;;4.23;58.21;95185.13;5087503;28;20219;-76
2022/01/17 09:44:09;;;;;;;21.83;10.43;;;;;;;4.19;59.45;95217.25;5087673;28;20221;-76
2022/01/17 09:46:41;;;;;;;17.10;10.53;;;;;;;3.99;60.61;95198.84;5087107;28;20679;-76
2022/01/17 09:49:24;;;;;;;20.03;11.20;;;;;;;3.98;61.56;95201.59;5088583;28;20651;-76
2022/01/17 09:52:06;;;;;;;20.33;10.70;;;;;;;3.88;62.12;95194.03;5087804;28;21317;-77
2022/01/17 09:54:39;;;;;;;24.13;12.00;;;;;;;3.96;63.14;95206.06;5087294;28;20208;-77
2022/01/17 09:57:08;;;;;;;20.23;11.60;;;;;;;4.02;62.97;95210.56;5083498;28;20193;-82
2022/01/17 09:59:38;;;;;;;26.20;10.90;;;;;;;4.00;63.93;95217.63;5087099;28;20726;-80
2022/01/17 10:02:08;;;;;;;26.23;10.90;;;;;;;4.00;64.24;95205.59;5088587;28;20773;-76
2022/01/17 10:04:37;;;;;;;22.10;10.77;;;;;;;4.19;64.07;95219.03;5086885;28;20228;-76
2022/01/17 10:07:08;;;;;;;17.80;7.43;;;;;;;4.60;63.70;95207.66;5080946;28;20205;-76
2022/01/17 10:09:40;;;;;;;11.37;6.53;;;;;;;5.54;60.64;95225.47;5087721;28;20212;-76
2022/01/17 10:12:11;;;;;;;22.43;7.70;;;;;;;7.13;55.53;95232.69;5087153;28;20201;-76
2022/01/17 10:14:41;;;;;;;19.40;6.03;;;;;;;8.78;50.50;95240.78;5087955;28;20221;-76
2022/01/17 10:17:11;;;;;;;11.90;5.70;;;;;;;9.92;46.33;95248.50;5087142;28;20210;-76
2022/01/17 10:19:40;;;;;;;9.13;6.30;;;;;;;10.66;43.79;95227.47;5087645;28;20204;-77
2022/01/17 10:22:14;;;;;;;15.60;7.77;;;;;;;11.50;43.45;95238.53;5087379;28;20255;-78
2022/01/17 10:24:55;;;;;;;16.30;9.00;;;;;;;11.78;41.41;95238.19;5080804;28;20624;-77
2022/01/17 10:35:59;;;;;;;8.77;6.13;;;;;;;14.39;36.45;95224.94;5046322;28;20196;-80
2022/01/17 10:38:28;;;;;;;12.20;5.80;;;;;;;14.36;35.55;95225.41;5071342;28;20196;-81
2022/01/17 10:41:02;;;;;;;10.27;5.90;;;;;;;13.92;35.89;95231.91;5087893;28;20691;-88
2022/01/17 10:43:34;;;;;;;7.90;5.63;;;;;;;13.94;36.26;95222.03;5076431;28;20209;-86
2022/01/17 10:46:04;;;;;;;12.17;7.67;;;;;;;12.66;37.61;95228.44;5072625;28;20197;-86
2022/01/17 10:48:36;;;;;;;12.83;7.73;;;;;;;11.13;40.18;95206.31;5082762;28;20193;-86
2022/01/17 10:51:05;;;;;;;15.97;9.03;;;;;;;9.26;44.42;95198.31;5087060;28;20683;-87
2022/01/17 10:53:34;;;;;;;16.37;9.97;;;;;;;7.77;48.05;95192.09;5090143;28;20284;-86
2022/01/17 10:56:08;;;;;;;15.43;9.57;;;;;;;6.83;51.09;95175.91;5085508;28;20209;-87
2022/01/17 10:58:37;;;;;;;17.90;10.80;;;;;;;6.14;53.93;95203.03;5085252;28;20262;-85
2022/01/17 11:01:09;;;;;;;15.70;10.03;;;;;;;5.53;56.07;95200.63;5091759;28;20658;-89
2022/01/17 11:03:38;;;;;;;20.17;10.63;;;;;;;5.23;58.67;95192.00;5082859;28;20238;-87
2022/01/17 11:06:09;;;;;;;14.80;8.50;;;;;;;4.93;59.80;95185.13;5094175;28;20401;-87
2022/01/17 11:08:40;;;;;;;11.73;7.27;;;;;;;4.47;62.03;95172.16;5093642;28;20679;-88
2022/01/17 11:11:11;;;;;;;12.57;7.53;;;;;;;4.35;62.31;95170.94;5085951;28;20201;-89
2022/01/17 11:13:44;;;;;;;11.87;7.43;;;;;;;5.54;58.98;95179.84;5093301;28;20208;-87
2022/01/17 11:16:12;;;;;;;14.13;8.23;;;;;;;6.39;54.94;95176.94;5092344;28;20203;-87
2022/01/17 11:18:45;;;;;;;15.97;9.80;;;;;;;7.91;51.03;95179.06;5091827;28;20212;-87
2022/01/17 11:21:17;;;;;;;10.00;6.17;;;;;;;8.67;47.96;95161.00;5092837;28;20215;-87
2022/01/17 11:23:49;;;;;;;18.50;10.43;;;;;;;8.84;46.84;95160.47;5092483;28;20203;-88
2022/01/17 11:26:19;;;;;;;15.20;7.97;;;;;;;9.35;45.19;95147.03;5078819;28;20209;-88
2022/01/17 11:28:53;;;;;;;17.27;9.67;;;;;;;9.58;44.35;95155.25;5084985;28;20213;-87
2022/01/17 11:31:22;;;;;;;16.20;9.20;;;;;;;9.93;42.42;95153.22;5092436;28;20228;-87
2022/01/17 11:33:51;;;;;;;15.63;7.57;;;;;;;10.17;41.84;95135.25;5092755;28;20683;-88
2022/01/17 11:36:21;;;;;;;16.10;9.03;;;;;;;10.52;41.35;95145.34;5092215;28;20667;-86
2022/01/17 11:38:52;;;;;;;12.80;7.53;;;;;;;11.04;40.25;95152.13;5092525;28;20201;-88
2022/01/17 11:41:25;;;;;;;11.00;6.43;;;;;;;11.23;39.86;95167.63;5088795;28;20193;-90